Time;durP1;ratioP1;P1;durP2;ratioP2;P2;SDS_P1;SDS_P2;PMS_P1;PMS_P2;Temp;Humidity;BMP_temperature;BMP_pressure;BME280_temperature;BME280_humidity;BME280_pressure;Samples;Min_cycle;Max_cycle;Signal;HPM_P1;HPM_P2
2022/01/18 00:00:37;;;;;;;13.45;2.88;;;5.40;63.80;;;;;;5065370;28;20029;-65
2022/01/18 00:03:04;;;;;;;16.08;3.00;;;5.50;63.60;;;;;;5026965;28;20036;-63
2022/01/18 00:05:32;;;;;;;11.00;2.50;;;5.50;63.50;;;;;;5050722;28;20468;-63
2022/01/18 00:07:58;;;;;;;10.05;2.95;;;5.50;63.30;;;;;;5050059;28;20060;-64
2022/01/18 00:10:29;;;;;;;9.77;2.78;;;5.50;63.50;;;;;;5050868;28;20028;-64
2022/01/18 00:18:06;;;;;;;18.92;3.17;;;5.50;63.00;;;;;;5091072;28;20028;-63
2022/01/18 00:23:11;;;;;;;13.25;2.95;;;5.40;62.90;;;;;;5089510;28;20024;-64
2022/01/18 00:25:41;;;;;;;14.10;2.90;;;5.40;62.70;;;;;;5084883;28;20116;-63
2022/01/18 00:28:07;;;;;;;13.55;3.05;;;5.30;62.90;;;;;;5082362;28;20099;-63
2022/01/18 00:33:24;;;;;;;13.98;2.75;;;5.30;63.20;;;;;;5094762;28;20028;-63
2022/01/18 00:36:00;;;;;;;12.98;3.17;;;5.30;63.00;;;;;;5094002;28;20122;-63
2022/01/18 00:38:33;;;;;;;14.80;3.03;;;5.30;63.50;;;;;;5094658;28;20496;-64
2022/01/18 00:40:59;;;;;;;14.25;3.00;;;5.30;63.30;;;;;;5092302;28;20057;-64
2022/01/18 00:43:25;;;;;;;19.25;3.42;;;5.30;63.20;;;;;;5094265;28;20472;-63
2022/01/18 00:45:51;;;;;;;14.15;3.42;;;5.40;63.60;;;;;;5088260;28;20039;-63
2022/01/18 00:48:17;;;;;;;10.30;2.65;;;5.30;63.40;;;;;;5085134;28;20029;-65
2022/01/18 00:50:44;;;;;;;19.77;3.53;;;5.30;63.60;;;;;;5091424;28;20502;-64
2022/01/18 00:53:11;;;;;;;15.60;3.15;;;5.30;63.80;;;;;;5093819;28;20026;-64
2022/01/18 00:55:48;;;;;;;13.77;2.95;;;5.30;63.80;;;;;;5091558;28;20031;-64
2022/01/18 00:58:14;;;;;;;15.68;3.10;;;5.30;63.70;;;;;;5090027;28;20042;-64
2022/01/18 01:00:41;;;;;;;14.68;2.90;;;5.20;63.90;;;;;;5092628;28;20050;-63
2022/01/18 01:03:07;;;;;;;15.05;3.25;;;5.20;64.20;;;;;;5093480;28;20043;-64
2022/01/18 01:05:32;;;;;;;15.93;3.60;;;5.20;64.60;;;;;;5092216;28;20020;-64
2022/01/18 01:07:58;;;;;;;17.50;3.10;;;5.20;64.80;;;;;;5092076;28;20475;-63
2022/01/18 01:10:24;;;;;;;15.98;3.75;;;5.20;65.10;;;;;;5092133;28;20059;-63
2022/01/18 01:12:50;;;;;;;12.65;3.20;;;5.20;65.40;;;;;;5087762;28;20075;-64
2022/01/18 01:15:18;;;;;;;13.30;3.35;;;5.20;65.80;;;;;;5070925;28;20374;-64
2022/01/18 01:17:55;;;;;;;12.23;3.72;;;5.20;65.90;;;;;;5072842;28;20037;-63
2022/01/18 01:42:34;;;;;;;10.75;3.53;;;5.00;70.00;;;;;;5071629;28;20082;-64
2022/01/18 01:45:02;;;;;;;12.38;3.22;;;5.00;70.40;;;;;;5072170;28;20028;-64
2022/01/18 01:47:37;;;;;;;10.48;3.38;;;5.00;70.70;;;;;;5069763;28;20044;-63
2022/01/18 01:50:07;;;;;;;11.55;2.95;;;5.00;71.00;;;;;;5069632;28;20021;-63
2022/01/18 01:52:32;;;;;;;9.82;2.72;;;5.00;71.10;;;;;;5052941;28;20488;-63
2022/01/18 01:54:59;;;;;;;11.32;2.50;;;5.00;71.00;;;;;;5071373;28;20036;-63
2022/01/18 01:57:25;;;;;;;14.82;2.90;;;5.10;70.90;;;;;;5053550;28;20086;-63
2022/01/18 01:59:51;;;;;;;15.25;3.10;;;5.00;71.50;;;;;;5072232;28;20024;-63
2022/01/18 02:02:17;;;;;;;13.50;3.15;;;5.00;71.40;;;;;;5058604;28;20050;-67
2022/01/18 02:04:43;;;;;;;13.25;3.50;;;5.00;71.80;;;;;;5053102;28;20374;-63
2022/01/18 02:07:08;;;;;;;8.73;2.67;;;5.00;71.60;;;;;;5072207;28;20033;-63
2022/01/18 02:09:34;;;;;;;11.38;3.40;;;5.00;71.80;;;;;;5036853;28;20021;-63
2022/01/18 02:12:01;;;;;;;15.00;3.13;;;5.00;71.80;;;;;;5071696;28;20028;-63
2022/01/18 02:14:30;;;;;;;10.35;2.90;;;5.00;71.70;;;;;;5085169;28;20060;-64
2022/01/18 02:22:25;;;;;;;17.45;3.80;;;4.90;72.00;;;;;;5091423;28;20043;-64
2022/01/18 02:24:51;;;;;;;11.02;2.92;;;4.90;72.00;;;;;;5090253;28;20086;-63
2022/01/18 02:27:17;;;;;;;16.20;3.55;;;4.80;72.00;;;;;;5091871;28;20028;-64
2022/01/18 02:29:43;;;;;;;15.90;3.20;;;4.90;71.60;;;;;;5091103;28;20031;-64
2022/01/18 02:32:09;;;;;;;12.18;3.92;;;4.90;71.20;;;;;;5089657;28;20036;-65
2022/01/18 02:34:35;;;;;;;12.88;3.40;;;4.90;71.50;;;;;;5091268;28;20036;-64
2022/01/18 02:37:03;;;;;;;13.30;3.10;;;4.90;71.30;;;;;;5089696;28;20043;-64
2022/01/18 02:39:30;;;;;;;16.98;3.25;;;4.90;71.00;;;;;;5090743;28;20036;-64
2022/01/18 02:41:59;;;;;;;17.98;3.35;;;4.90;70.70;;;;;;5091221;28;20081;-63
2022/01/18 02:44:27;;;;;;;14.02;3.28;;;4.90;70.60;;;;;;5069628;28;20032;-64
2022/01/18 02:46:53;;;;;;;16.52;3.40;;;4.90;70.40;;;;;;5078142;28;20550;-63
2022/01/18 02:49:19;;;;;;;13.25;3.83;;;5.00;70.30;;;;;;5090217;28;20111;-68
2022/01/18 02:51:45;;;;;;;18.38;3.60;;;5.00;70.00;;;;;;5090462;28;20454;-64
2022/01/18 02:54:13;;;;;;;11.70;2.80;;;5.00;69.80;;;;;;5089288;28;20238;-65
2022/01/18 02:56:47;;;;;;;15.68;3.53;;;5.00;69.90;;;;;;5088833;28;20299;-63
2022/01/18 02:59:23;;;;;;;17.83;3.78;;;5.00;69.90;;;;;;5090175;28;20024;-65
2022/01/18 03:04:39;;;;;;;15.75;3.15;;;4.80;70.10;;;;;;5090453;28;20039;-64
2022/01/18 03:07:05;;;;;;;12.80;3.45;;;4.80;70.30;;;;;;5090006;28;20062;-63
2022/01/18 03:09:31;;;;;;;19.25;3.60;;;4.90;70.30;;;;;;5090071;28;20099;-64
2022/01/18 03:11:56;;;;;;;12.57;2.78;;;4.90;70.00;;;;;;5089755;28;20342;-64
2022/01/18 03:14:22;;;;;;;10.02;2.78;;;4.90;70.00;;;;;;5072800;28;20053;-69
2022/01/18 03:16:49;;;;;;;11.32;2.63;;;4.90;69.90;;;;;;5070561;28;20052;-63
2022/01/18 03:19:15;;;;;;;16.10;3.47;;;4.90;69.80;;;;;;5070519;28;20039;-64
2022/01/18 03:21:41;;;;;;;14.70;3.47;;;4.90;69.60;;;;;;5069273;28;20441;-67
2022/01/18 03:24:20;;;;;;;14.35;2.92;;;4.80;69.70;;;;;;5070545;28;20036;-64
2022/01/18 03:29:49;;;;;;;14.30;2.92;;;4.80;68.90;;;;;;5070337;28;20166;-63
2022/01/18 03:32:33;;;;;;;17.70;3.47;;;4.80;68.40;;;;;;5052323;28;20127;-63
2022/01/18 03:35:05;;;;;;;16.65;3.47;;;4.80;68.20;;;;;;5051637;28;20036;-63
2022/01/18 03:37:30;;;;;;;12.60;3.00;;;4.70;67.60;;;;;;5049327;28;20077;-63
2022/01/18 03:39:56;;;;;;;11.00;2.92;;;4.70;67.80;;;;;;5066662;28;20112;-64
2022/01/18 03:44:56;;;;;;;12.40;2.85;;;4.70;66.80;;;;;;5069639;28;20093;-63
2022/01/18 03:47:23;;;;;;;14.68;3.25;;;4.70;66.90;;;;;;5068842;28;20397;-64
2022/01/18 03:49:49;;;;;;;13.65;3.55;;;4.70;66.00;;;;;;5051801;28;20036;-63
2022/01/18 03:52:14;;;;;;;12.38;2.50;;;4.60;65.60;;;;;;5069280;28;20043;-63
2022/01/18 03:54:47;;;;;;;13.05;2.95;;;4.60;65.70;;;;;;5051644;28;20028;-63
2022/01/18 03:57:14;;;;;;;14.65;3.25;;;4.70;65.60;;;;;;5052780;28;20083;-63
2022/01/18 03:59:40;;;;;;;12.07;2.88;;;4.60;64.60;;;;;;5052538;28;20024;-64
2022/01/18 04:02:07;;;;;;;13.38;3.25;;;4.60;64.60;;;;;;5073812;28;20112;-63
2022/01/18 04:04:34;;;;;;;15.35;3.22;;;4.70;64.60;;;;;;5055629;28;20044;-63
2022/01/18 04:07:00;;;;;;;14.00;3.35;;;4.60;64.10;;;;;;5073548;28;20031;-64
2022/01/18 04:09:26;;;;;;;12.80;2.78;;;4.70;64.50;;;;;;5072169;28;20933;-63
2022/01/18 04:11:53;;;;;;;13.07;2.90;;;4.70;63.80;;;;;;5055215;28;20052;-64
2022/01/18 04:14:19;;;;;;;12.35;2.67;;;4.70;63.30;;;;;;5073412;28;20087;-64
2022/01/18 04:17:01;;;;;;;14.90;3.08;;;4.70;63.60;;;;;;5054530;28;20068;-63
2022/01/18 04:27:25;;;;;;;11.63;2.50;;;4.80;63.00;;;;;;5073048;28;20440;-64
2022/01/18 04:29:50;;;;;;;12.52;2.75;;;4.80;62.70;;;;;;5073763;28;20021;-63
2022/01/18 04:32:16;;;;;;;17.33;3.08;;;4.80;62.60;;;;;;5053992;28;20418;-63
2022/01/18 04:34:42;;;;;;;12.45;2.92;;;4.80;62.80;;;;;;5073194;28;20032;-64
2022/01/18 04:37:08;;;;;;;16.33;2.78;;;4.80;62.80;;;;;;5073155;28;20366;-67
2022/01/18 04:39:38;;;;;;;13.73;3.10;;;4.80;62.80;;;;;;5072715;28;20032;-64
2022/01/18 04:42:11;;;;;;;17.80;3.72;;;4.80;62.80;;;;;;5072732;28;20028;-64
2022/01/18 04:49:51;;;;;;;14.25;3.05;;;4.60;63.10;;;;;;5072449;28;20070;-63
2022/01/18 04:52:17;;;;;;;9.85;2.83;;;4.60;63.60;;;;;;5052897;28;20136;-64
2022/01/18 04:54:45;;;;;;;14.45;3.00;;;4.50;63.70;;;;;;5073181;28;20020;-63
2022/01/18 04:59:37;;;;;;;15.80;3.38;;;4.50;64.30;;;;;;5072845;28;20078;-63
2022/01/18 05:02:03;;;;;;;19.63;3.53;;;4.50;64.50;;;;;;5054251;28;20020;-63
2022/01/18 05:04:29;;;;;;;22.33;3.05;;;4.50;64.70;;;;;;5053749;28;20346;-63
2022/01/18 05:06:59;;;;;;;14.35;3.03;;;4.50;65.10;;;;;;5054014;28;20037;-63
2022/01/18 05:09:26;;;;;;;15.23;3.17;;;4.50;65.30;;;;;;5072277;28;20031;-62
2022/01/18 05:12:19;;;;;;;14.15;3.00;;;4.60;65.40;;;;;;5070933;28;20069;-63
2022/01/18 05:14:38;;;;;;;16.50;3.20;;;4.60;65.00;;;;;;5067240;28;20143;-63
2022/01/18 05:20:11;;;;;;;11.02;3.00;;;4.70;64.90;;;;;;5072140;28;20032;-63
2022/01/18 05:25:14;;;;;;;12.70;3.42;;;4.70;65.00;;;;;;5071056;28;20119;-63
2022/01/18 05:27:40;;;;;;;14.02;2.78;;;4.60;65.00;;;;;;5072266;28;20108;-66
2022/01/18 05:30:06;;;;;;;21.60;4.32;;;4.70;65.00;;;;;;5053569;28;20120;-63
2022/01/18 05:32:32;;;;;;;17.60;3.40;;;4.70;64.90;;;;;;5070409;28;20088;-63
2022/01/18 05:34:58;;;;;;;19.67;3.15;;;4.70;64.80;;;;;;5071272;28;20041;-64
2022/01/18 05:37:23;;;;;;;13.45;3.67;;;4.70;64.80;;;;;;5050134;28;20067;-64
2022/01/18 05:39:49;;;;;;;17.85;3.80;;;4.70;64.80;;;;;;5069530;28;20398;-64
2022/01/18 05:42:15;;;;;;;16.08;4.00;;;4.70;64.70;;;;;;5053235;28;20035;-64
2022/01/18 05:44:40;;;;;;;14.25;3.40;;;4.70;64.60;;;;;;5071618;28;20413;-65
2022/01/18 05:47:06;;;;;;;17.63;3.42;;;4.70;64.80;;;;;;5071862;28;20466;-64
2022/01/18 05:49:32;;;;;;;15.80;3.58;;;4.70;64.70;;;;;;5052825;28;20447;-65
2022/01/18 05:51:58;;;;;;;14.15;3.72;;;4.70;64.70;;;;;;5054084;28;20480;-64
2022/01/18 05:54:23;;;;;;;16.92;3.50;;;4.70;64.60;;;;;;5068839;28;20033;-64
2022/01/18 05:56:49;;;;;;;19.55;4.03;;;4.70;64.70;;;;;;5071199;28;20036;-64
2022/01/18 05:59:22;;;;;;;20.02;4.18;;;4.80;64.70;;;;;;5070190;28;20047;-64
2022/01/18 06:01:49;;;;;;;20.08;5.50;;;4.70;64.80;;;;;;5052721;28;20029;-64
2022/01/18 06:06:59;;;;;;;19.65;3.40;;;4.80;64.60;;;;;;5068369;28;20562;-64
2022/01/18 06:09:24;;;;;;;26.40;4.03;;;4.80;64.70;;;;;;5069730;28;20052;-64
2022/01/18 06:11:51;;;;;;;18.27;3.90;;;4.70;64.80;;;;;;5071096;28;20078;-64
2022/01/18 06:14:17;;;;;;;18.33;4.22;;;4.70;64.80;;;;;;5070125;28;20051;-65
2022/01/18 06:16:43;;;;;;;18.80;4.18;;;4.80;64.80;;;;;;5071372;28;20036;-64
2022/01/18 06:19:09;;;;;;;20.40;3.72;;;4.80;64.80;;;;;;5071617;28;20086;-68
2022/01/18 06:21:35;;;;;;;17.58;4.57;;;4.80;64.80;;;;;;5069030;28;20032;-66
2022/01/18 06:24:02;;;;;;;22.23;4.32;;;4.80;64.80;;;;;;5052758;28;20032;-63
2022/01/18 06:26:28;;;;;;;11.63;3.60;;;4.80;65.00;;;;;;5070352;28;20033;-64
2022/01/18 06:28:55;;;;;;;20.35;4.65;;;4.80;65.20;;;;;;5070910;28;20035;-63
2022/01/18 06:31:21;;;;;;;17.42;3.55;;;4.80;65.30;;;;;;5052966;28;20040;-64
2022/01/18 06:33:47;;;;;;;20.13;3.97;;;4.80;65.50;;;;;;5052808;28;20538;-65
2022/01/18 06:36:13;;;;;;;18.92;4.22;;;4.80;65.70;;;;;;5069383;28;20036;-67
2022/01/18 06:38:38;;;;;;;13.82;3.97;;;4.70;65.80;;;;;;5070781;28;20508;-64
2022/01/18 06:41:04;;;;;;;19.50;4.70;;;4.70;66.20;;;;;;5070900;28;20048;-64
2022/01/18 06:43:30;;;;;;;24.33;4.70;;;4.70;66.40;;;;;;5069793;28;20572;-64
2022/01/18 06:45:56;;;;;;;13.18;4.03;;;4.70;66.60;;;;;;5070264;28;20032;-64
2022/01/18 06:48:22;;;;;;;17.45;4.45;;;4.70;66.50;;;;;;5069674;28;20389;-65
2022/01/18 06:50:47;;;;;;;21.48;5.07;;;4.70;66.50;;;;;;5052703;28;20102;-64
2022/01/18 06:53:13;;;;;;;25.65;5.90;;;4.70;66.70;;;;;;5051463;28;20498;-67
2022/01/18 06:55:39;;;;;;;23.88;4.82;;;4.70;66.80;;;;;;5070974;28;20035;-66
2022/01/18 06:58:05;;;;;;;15.18;4.78;;;4.80;66.70;;;;;;5070731;28;20028;-65
2022/01/18 07:00:30;;;;;;;17.40;4.75;;;4.90;66.90;;;;;;5070119;28;20054;-66
2022/01/18 07:02:56;;;;;;;21.80;4.60;;;4.90;67.00;;;;;;5069390;28;20032;-65
2022/01/18 07:05:22;;;;;;;14.55;4.53;;;4.80;67.20;;;;;;5052323;28;20056;-63
2022/01/18 07:07:48;;;;;;;19.83;4.53;;;4.90;67.30;;;;;;5071108;28;20448;-63
2022/01/18 07:10:14;;;;;;;26.00;5.18;;;4.80;67.60;;;;;;5052286;28;20024;-67
2022/01/18 07:12:40;;;;;;;21.60;4.32;;;4.80;67.70;;;;;;5053029;28;20044;-64
2022/01/18 07:15:07;;;;;;;24.77;5.50;;;4.90;67.90;;;;;;5053272;28;20028;-64
2022/01/18 07:17:40;;;;;;;13.07;4.50;;;4.90;67.90;;;;;;5051700;28;20034;-65
2022/01/18 07:20:07;;;;;;;19.92;4.75;;;4.90;68.10;;;;;;5069698;28;20097;-65
2022/01/18 07:22:34;;;;;;;23.35;5.05;;;5.00;68.00;;;;;;5065223;28;20486;-65
2022/01/18 07:25:02;;;;;;;18.50;4.82;;;5.10;67.90;;;;;;5071372;28;20028;-64
2022/01/18 07:27:29;;;;;;;21.00;4.88;;;5.10;67.80;;;;;;5070123;28;20082;-65
2022/01/18 07:29:54;;;;;;;16.38;5.28;;;5.10;67.60;;;;;;5053218;28;20035;-66
2022/01/18 07:32:20;;;;;;;19.48;5.60;;;5.10;67.50;;;;;;5052851;28;20111;-67
2022/01/18 07:34:52;;;;;;;18.05;5.30;;;5.20;67.60;;;;;;5049882;28;20027;-66
2022/01/18 07:37:19;;;;;;;16.80;4.88;;;5.20;67.50;;;;;;5049939;28;20052;-67
2022/01/18 07:39:45;;;;;;;18.90;4.88;;;5.30;67.30;;;;;;5070279;28;20028;-65
2022/01/18 07:42:11;;;;;;;16.95;5.13;;;5.30;67.00;;;;;;5052368;28;20024;-65
2022/01/18 07:44:36;;;;;;;20.73;5.40;;;5.40;66.90;;;;;;5070200;28;20439;-66
2022/01/18 07:47:03;;;;;;;22.60;6.40;;;5.60;67.90;;;;;;5070765;28;20028;-66
2022/01/18 07:49:29;;;;;;;18.08;7.78;;;7.20;64.70;;;;;;5052334;28;20474;-66
2022/01/18 07:51:54;;;;;;;22.40;13.20;;;9.00;58.80;;;;;;5070291;28;20024;-66
2022/01/18 07:54:20;;;;;;;18.95;7.32;;;10.00;54.00;;;;;;5071180;28;20108;-65
2022/01/18 07:56:46;;;;;;;28.65;9.40;;;10.30;53.20;;;;;;5067415;28;20048;-65
2022/01/18 07:59:12;;;;;;;22.02;8.85;;;9.90;53.00;;;;;;5059726;28;20513;-67
2022/01/18 08:01:41;;;;;;;18.10;5.20;;;9.40;53.80;;;;;;5063693;28;20025;-67
2022/01/18 08:04:07;;;;;;;16.65;5.30;;;8.90;54.60;;;;;;5044579;28;20040;-65
2022/01/18 08:06:33;;;;;;;23.17;5.10;;;8.30;55.60;;;;;;5049877;28;20107;-64
2022/01/18 08:08:59;;;;;;;21.70;5.38;;;7.90;56.60;;;;;;5047790;28;20111;-64
2022/01/18 08:11:25;;;;;;;16.35;5.00;;;7.70;57.70;;;;;;5054593;28;20481;-65
2022/01/18 08:13:51;;;;;;;16.40;5.40;;;7.50;58.20;;;;;;5069899;28;20043;-65
2022/01/18 08:16:34;;;;;;;18.02;4.95;;;7.30;58.70;;;;;;5084118;28;20453;-66
2022/01/18 08:19:05;;;;;;;22.73;5.70;;;7.20;59.30;;;;;;5088953;28;20035;-63
2022/01/18 08:21:31;;;;;;;18.45;5.00;;;6.90;60.00;;;;;;5081968;28;20039;-66
2022/01/18 08:23:57;;;;;;;22.38;6.00;;;7.00;60.40;;;;;;5083868;28;20051;-66
2022/01/18 08:26:23;;;;;;;23.45;5.68;;;7.00;60.60;;;;;;5088776;28;20035;-66
2022/01/18 08:28:49;;;;;;;18.42;5.68;;;7.00;60.80;;;;;;5089158;28;20021;-65
2022/01/18 08:31:14;;;;;;;22.27;5.55;;;6.90;60.80;;;;;;5085742;28;20039;-70
2022/01/18 08:33:40;;;;;;;20.02;5.05;;;6.90;61.10;;;;;;5087338;28;20020;-67
2022/01/18 08:36:06;;;;;;;17.60;5.45;;;6.90;61.30;;;;;;5078934;28;20044;-66
2022/01/18 08:38:33;;;;;;;21.13;5.07;;;6.90;61.30;;;;;;5087314;28;20028;-66
2022/01/18 08:41:01;;;;;;;17.13;5.45;;;6.90;61.40;;;;;;5088701;28;20035;-65
2022/01/18 08:43:30;;;;;;;21.85;5.63;;;6.90;61.10;;;;;;5088958;28;20032;-65
2022/01/18 08:46:00;;;;;;;18.85;5.00;;;6.90;61.10;;;;;;5091251;28;20111;-65
2022/01/18 08:48:26;;;;;;;16.60;5.25;;;6.90;61.10;;;;;;5071192;28;20036;-68
2022/01/18 08:50:52;;;;;;;18.48;5.05;;;6.90;61.10;;;;;;5064854;28;20945;-71
2022/01/18 08:53:18;;;;;;;25.45;5.53;;;6.80;61.20;;;;;;5076516;28;20396;-65
2022/01/18 08:55:43;;;;;;;22.10;5.55;;;6.80;61.50;;;;;;5073302;28;20086;-65
2022/01/18 08:58:09;;;;;;;18.35;5.30;;;6.80;61.50;;;;;;5079627;28;20036;-65
2022/01/18 09:00:35;;;;;;;19.33;5.65;;;6.90;61.50;;;;;;5065238;28;20453;-70
2022/01/18 09:03:02;;;;;;;23.23;5.13;;;6.90;61.50;;;;;;5074321;28;20144;-68
2022/01/18 09:05:28;;;;;;;21.85;5.38;;;7.00;61.30;;;;;;5082218;28;20126;-66
2022/01/18 09:07:56;;;;;;;19.60;4.63;;;7.00;61.00;;;;;;5060046;28;20473;-66
2022/01/18 09:10:25;;;;;;;20.45;5.32;;;6.90;60.70;;;;;;5062944;28;20016;-66
2022/01/18 09:12:51;;;;;;;14.65;4.78;;;7.00;61.00;;;;;;5079480;28;20085;-68
2022/01/18 09:15:18;;;;;;;21.73;5.38;;;7.00;60.70;;;;;;5063633;28;20044;-69
2022/01/18 09:17:44;;;;;;;20.65;5.22;;;7.00;60.40;;;;;;5088441;28;20039;-64
2022/01/18 09:20:12;;;;;;;22.35;4.05;;;7.00;60.10;;;;;;5081032;28;20032;-68
2022/01/18 09:22:42;;;;;;;19.55;4.25;;;7.00;60.10;;;;;;5072345;28;20527;-67
2022/01/18 09:25:11;;;;;;;21.60;5.53;;;7.10;60.20;;;;;;5060231;28;20547;-70
2022/01/18 09:27:37;;;;;;;20.65;5.68;;;7.10;60.00;;;;;;5067224;28;20066;-67
2022/01/18 09:30:04;;;;;;;24.67;5.10;;;7.00;60.00;;;;;;5086050;28;20028;-64
2022/01/18 09:32:30;;;;;;;25.45;6.22;;;7.00;60.10;;;;;;5084449;28;20027;-69
2022/01/18 09:34:56;;;;;;;24.65;5.93;;;7.00;60.00;;;;;;5079106;28;20016;-66
2022/01/18 09:37:22;;;;;;;28.27;5.55;;;7.20;60.00;;;;;;5089336;28;20099;-64
2022/01/18 09:39:48;;;;;;;30.45;6.28;;;7.30;59.70;;;;;;5076239;28;20102;-67
2022/01/18 09:42:16;;;;;;;23.55;4.65;;;7.40;58.90;;;;;;5064930;28;20021;-70
2022/01/18 09:44:42;;;;;;;30.35;6.13;;;7.40;58.60;;;;;;5059554;28;20024;-69
2022/01/18 09:47:08;;;;;;;20.42;5.40;;;7.40;58.00;;;;;;5064709;28;20386;-68
2022/01/18 09:49:34;;;;;;;28.17;5.65;;;7.20;58.00;;;;;;5061845;28;20520;-66
2022/01/18 09:52:00;;;;;;;20.95;6.22;;;7.30;58.20;;;;;;5067081;28;20021;-70
2022/01/18 09:54:26;;;;;;;23.02;5.32;;;7.40;57.70;;;;;;5079785;28;20111;-67
2022/01/18 09:56:52;;;;;;;24.13;5.25;;;7.40;57.60;;;;;;5078595;28;20481;-63
2022/01/18 09:59:19;;;;;;;14.95;4.32;;;7.40;57.20;;;;;;5091668;28;20028;-65
2022/01/18 10:01:45;;;;;;;20.33;4.90;;;7.50;56.90;;;;;;5086352;28;20069;-65
2022/01/18 10:04:30;;;;;;;20.30;5.30;;;7.40;56.80;;;;;;5086717;28;20020;-64
2022/01/18 10:06:57;;;;;;;18.02;4.65;;;7.60;56.90;;;;;;5082122;28;20041;-63
2022/01/18 10:09:24;;;;;;;20.80;5.38;;;7.60;56.30;;;;;;5085193;28;20070;-66
2022/01/18 10:12:12;;;;;;;26.00;5.80;;;7.70;55.70;;;;;;5088236;28;20019;-70
2022/01/18 10:14:59;;;;;;;20.77;4.03;;;7.60;55.80;;;;;;5070749;28;20041;-66
2022/01/18 10:17:37;;;;;;;16.23;4.65;;;7.60;55.50;;;;;;5068025;28;20048;-66
2022/01/18 10:20:19;;;;;;;22.80;5.93;;;7.70;55.30;;;;;;5071711;28;20027;-66
2022/01/18 10:22:49;;;;;;;25.88;4.60;;;7.80;55.00;;;;;;5054593;28;20063;-69
2022/01/18 10:25:33;;;;;;;31.52;4.65;;;7.80;54.90;;;;;;5072623;28;20055;-68
2022/01/18 10:27:59;;;;;;;16.30;4.18;;;7.90;54.20;;;;;;5069480;28;20031;-63
2022/01/18 10:30:43;;;;;;;16.35;4.13;;;7.90;54.00;;;;;;5067431;28;20025;-68
2022/01/18 10:33:38;;;;;;;17.55;4.18;;;7.90;53.40;;;;;;5064367;28;20080;-68
2022/01/18 10:36:11;;;;;;;26.83;4.93;;;8.00;53.50;;;;;;5069426;28;20020;-67
2022/01/18 10:38:38;;;;;;;24.23;4.72;;;8.10;53.60;;;;;;5042699;28;20028;-65
2022/01/18 10:41:28;;;;;;;19.98;4.53;;;8.10;52.50;;;;;;5061911;28;20021;-68
2022/01/18 10:44:11;;;;;;;20.83;4.82;;;8.10;52.20;;;;;;5071527;28;20029;-67
2022/01/18 10:46:41;;;;;;;19.58;4.05;;;8.30;51.70;;;;;;5069850;28;20074;-66
2022/01/18 10:49:08;;;;;;;19.30;4.28;;;8.50;50.50;;;;;;5072434;28;20025;-65
2022/01/18 10:51:39;;;;;;;21.45;4.30;;;8.90;49.40;;;;;;5070997;28;20012;-67
2022/01/18 10:54:09;;;;;;;22.20;4.47;;;8.80;49.30;;;;;;5052886;28;20446;-70
2022/01/18 10:56:44;;;;;;;22.63;5.30;;;9.80;49.30;;;;;;5040977;28;20466;-68
2022/01/18 10:59:24;;;;;;;19.70;4.55;;;10.50;47.90;;;;;;5064758;28;20032;-64
2022/01/18 11:02:07;;;;;;;19.83;4.90;;;10.40;45.10;;;;;;5063408;28;20027;-66
2022/01/18 11:04:34;;;;;;;21.05;4.20;;;9.80;46.20;;;;;;5064943;28;20111;-64
2022/01/18 11:07:02;;;;;;;26.40;4.85;;;9.40;47.40;;;;;;5060382;28;20470;-67
2022/01/18 11:09:28;;;;;;;15.65;4.07;;;9.10;47.80;;;;;;5047954;28;20051;-70
2022/01/18 11:11:54;;;;;;;21.65;4.60;;;9.00;48.50;;;;;;5034598;28;20044;-67
2022/01/18 11:14:22;;;;;;;18.23;4.40;;;9.00;48.70;;;;;;5068820;28;20481;-67
2022/01/18 11:16:49;;;;;;;19.38;4.20;;;9.00;48.20;;;;;;5091798;28;20039;-67
2022/01/18 11:19:39;;;;;;;13.88;3.72;;;9.00;48.60;;;;;;5089897;28;20032;-67
2022/01/18 11:22:07;;;;;;;19.35;4.22;;;8.90;48.90;;;;;;5071070;28;20127;-67
2022/01/18 11:24:36;;;;;;;20.85;4.95;;;9.00;49.10;;;;;;5088829;28;20042;-67
2022/01/18 11:27:07;;;;;;;15.98;4.05;;;9.00;48.80;;;;;;5087377;28;20028;-66
2022/01/18 11:29:34;;;;;;;28.58;6.75;;;9.00;49.20;;;;;;5090437;28;20457;-65
2022/01/18 11:32:01;;;;;;;20.35;4.65;;;8.90;49.40;;;;;;5085717;28;20144;-66
2022/01/18 11:34:36;;;;;;;17.38;3.38;;;9.10;49.90;;;;;;5072335;28;20121;-66
2022/01/18 11:37:13;;;;;;;23.35;4.47;;;9.30;48.00;;;;;;5090051;28;20162;-68
2022/01/18 11:39:40;;;;;;;22.92;4.93;;;9.40;48.00;;;;;;5088258;28;20032;-66
2022/01/18 11:42:09;;;;;;;22.45;5.05;;;9.40;47.60;;;;;;5086315;28;20021;-64
2022/01/18 11:44:35;;;;;;;24.63;4.85;;;9.50;47.60;;;;;;5076391;28;20031;-66
2022/01/18 11:47:03;;;;;;;21.80;5.32;;;9.60;47.50;;;;;;5081235;28;20122;-64
2022/01/18 11:49:32;;;;;;;19.10;4.22;;;9.70;47.10;;;;;;5087467;28;20043;-66
2022/01/18 11:52:05;;;;;;;28.33;5.95;;;9.50;46.80;;;;;;5085893;28;20543;-66
2022/01/18 11:57:24;;;;;;;22.55;4.70;;;9.40;47.30;;;;;;5079922;28;20028;-66
2022/01/18 12:00:18;;;;;;;18.75;4.60;;;9.40;47.20;;;;;;5084930;28;20086;-65
2022/01/18 12:02:46;;;;;;;;;;;9.90;47.20;;;;;;5073951;28;20124;-66
2022/01/18 12:05:19;;;;;;;16.83;4.00;;;10.80;45.10;;;;;;5084178;28;19958;-68
2022/01/18 12:07:47;;;;;;;27.83;5.68;;;10.70;44.30;;;;;;5070219;28;20036;-66
2022/01/18 12:10:33;;;;;;;20.23;4.70;;;10.40;44.40;;;;;;5082938;28;20036;-66
2022/01/18 12:13:11;;;;;;;17.60;4.47;;;10.20;45.40;;;;;;5082032;28;20040;-66
2022/01/18 12:15:38;;;;;;;19.58;4.85;;;10.20;45.80;;;;;;5038604;28;20136;-67
2022/01/18 12:18:15;;;;;;;17.60;4.40;;;10.10;46.60;;;;;;5061649;28;20501;-66
2022/01/18 12:20:45;;;;;;;18.98;4.47;;;9.80;46.70;;;;;;5063000;28;20032;-68
2022/01/18 12:23:21;;;;;;;19.15;4.13;;;9.60;47.20;;;;;;5038555;28;20029;-66
2022/01/18 12:26:59;;;;;;;18.50;4.30;;;9.30;47.70;;;;;;5070383;28;20032;-66
2022/01/18 12:29:23;;;;;;;24.45;4.53;;;9.00;48.40;;;;;;5052639;28;20078;-66
2022/01/18 12:34:31;;;;;;;17.10;4.47;;;8.90;49.20;;;;;;5058540;28;20021;-66
2022/01/18 12:37:13;;;;;;;30.58;4.78;;;9.00;49.20;;;;;;5063192;28;20036;-67
2022/01/18 12:45:09;;;;;;;22.20;5.55;;;8.90;49.60;;;;;;5055207;28;20087;-69
2022/01/18 12:47:37;;;;;;;22.75;4.78;;;8.80;49.40;;;;;;5057567;28;20033;-65
2022/01/18 12:50:05;;;;;;;15.32;4.32;;;8.70;48.60;;;;;;5072907;28;20167;-65
2022/01/18 12:53:07;;;;;;;20.63;4.93;;;8.70;48.80;;;;;;5067126;28;21156;-65
2022/01/18 12:55:54;;;;;;;18.85;4.25;;;8.60;48.40;;;;;;5067905;28;20044;-66
2022/01/18 12:58:34;;;;;;;18.58;3.88;;;8.30;49.10;;;;;;5065147;28;20089;-68
2022/01/18 13:01:06;;;;;;;19.40;4.20;;;8.20;49.30;;;;;;5037255;28;20136;-68
2022/01/18 13:03:43;;;;;;;21.90;5.32;;;8.20;49.50;;;;;;5060849;28;20097;-68
2022/01/18 13:06:14;;;;;;;18.52;4.57;;;8.20;49.30;;;;;;5063044;28;20390;-69
2022/01/18 13:08:46;;;;;;;22.10;4.32;;;8.10;49.10;;;;;;5050766;28;20070;-69
2022/01/18 13:11:15;;;;;;;23.03;5.30;;;8.10;49.10;;;;;;5042900;28;20074;-68
2022/01/18 13:13:44;;;;;;;15.63;3.70;;;8.10;49.20;;;;;;5066515;28;20044;-70
2022/01/18 13:24:39;;;;;;;25.42;4.60;;;8.10;49.30;;;;;;5093099;28;20039;-67
2022/01/18 13:27:03;;;;;;;19.02;4.53;;;8.00;49.60;;;;;;5092712;28;20032;-66
2022/01/18 13:29:50;;;;;;;24.00;5.18;;;8.10;49.80;;;;;;5092088;28;20078;-71
2022/01/18 13:32:29;;;;;;;19.05;4.80;;;8.20;49.80;;;;;;5086229;28;20032;-64
2022/01/18 13:34:57;;;;;;;24.33;4.97;;;8.10;49.60;;;;;;5084905;28;20558;-66
2022/01/18 13:37:27;;;;;;;22.10;5.00;;;8.10;49.70;;;;;;5087610;28;20078;-65
2022/01/18 13:39:55;;;;;;;14.63;4.10;;;8.10;48.80;;;;;;5092780;28;20028;-69
2022/01/18 13:42:31;;;;;;;16.33;4.25;;;8.00;48.90;;;;;;5093385;28;20020;-67
2022/01/18 13:45:11;;;;;;;23.27;7.20;;;7.90;48.60;;;;;;5092786;28;20031;-68
2022/01/18 13:47:43;;;;;;;21.55;5.28;;;7.80;49.00;;;;;;5092075;28;20035;-68
2022/01/18 13:50:50;;;;;;;21.35;4.78;;;7.80;49.40;;;;;;5093462;28;20103;-68
2022/01/18 13:53:19;;;;;;;28.48;5.78;;;7.90;49.40;;;;;;5085318;28;20110;-67
2022/01/18 13:55:50;;;;;;;22.80;6.60;;;7.90;49.30;;;;;;5088184;28;20181;-69
2022/01/18 13:58:21;;;;;;;20.15;5.50;;;7.80;49.80;;;;;;5089996;28;20032;-66
2022/01/18 14:00:47;;;;;;;24.90;5.32;;;7.80;49.80;;;;;;5089176;28;20032;-67
2022/01/18 14:03:33;;;;;;;17.45;3.92;;;7.70;49.80;;;;;;5088963;28;20465;-67
2022/01/18 14:06:00;;;;;;;16.85;4.30;;;7.70;50.10;;;;;;5089436;28;20024;-67
2022/01/18 14:08:53;;;;;;;23.95;4.53;;;7.60;50.40;;;;;;5092085;28;20105;-67
2022/01/18 14:11:28;;;;;;;18.83;4.88;;;7.70;50.70;;;;;;5090066;28;20040;-67
2022/01/18 14:13:55;;;;;;;27.85;5.13;;;7.70;50.70;;;;;;5090894;28;20178;-68
2022/01/18 14:16:26;;;;;;;18.40;4.75;;;7.60;51.00;;;;;;5074790;28;20039;-68
2022/01/18 14:19:02;;;;;;;23.42;4.03;;;7.70;51.20;;;;;;5091842;28;20555;-66
2022/01/18 14:21:39;;;;;;;29.98;4.97;;;7.60;51.30;;;;;;5092401;28;20020;-69
2022/01/18 14:24:24;;;;;;;19.48;5.35;;;7.60;51.60;;;;;;5093049;28;20393;-68
2022/01/18 14:26:51;;;;;;;20.15;5.40;;;7.60;51.70;;;;;;5083175;28;20036;-67
2022/01/18 14:29:21;;;;;;;25.80;5.93;;;7.60;51.90;;;;;;5093246;28;20039;-67